Sunday, November 19, 2017, 9:08 AM EST
Back to Local

KJHW, Jamestown, Chautauqua County/jamestown Airport

Location: Jamestown, NY, United States Lat: 42.15
Local Time: 9:08 AM EST (14:08 GMT) Lon: -79.267
Time Zone: US/Eastern Elev: 1722 ft

Show me the last for .
Show Decoded

2017-11-19 08:40 METAR KJHW 191340Z AUTO 29017G26KT 10SM FEW019 BKN030 OVC037 01/M02 A2961 RMK
                 AO2 PK WND 28026/1336 RAE18 P0000 FZRANO =
2017-11-19 07:56 METAR KJHW 191256Z AUTO 30013KT 10SM -RA BKN016 OVC025 01/M01 A2959 RMK AO2
                 RAB52SNE52 SLP033 P0000 T00061011 FZRANO =
2017-11-19 07:48 METAR KJHW 191248Z AUTO 30012G23KT 9SM -SN SCT014 BKN021 OVC025 01/M01 A2959 RMK
                 AO2 P0000 FZRANO =
2017-11-19 07:31 METAR KJHW 191231Z AUTO 29013G19KT 9SM -SN FEW009 OVC014 01/M01 A2957 RMK AO2
                 P0000 FZRANO =
2017-11-19 07:23 METAR KJHW 191223Z AUTO 30013G20KT 6SM -SN BR BKN009 OVC014 01/M01 A2957 RMK AO2
                 CIG 007V013 P0000 FZRANO =
2017-11-19 07:16 METAR KJHW 191216Z AUTO 31013G23KT 2 1/2SM -SN BR FEW005 BKN014 OVC020 01/M01
                 A2956 RMK AO2 P0000 FZRANO =
2017-11-19 07:11 METAR KJHW 191211Z AUTO 31015G23KT 1 1/4SM -SN BR BKN008 OVC017 01/M01 A2955 RMK
                 AO2 CIG 005V010 P0000 FZRANO =
2017-11-19 07:03 METAR KJHW 191203Z AUTO 30016G20KT 1 1/4SM -SN BR SCT008 BKN014 OVC020 01/M01
                 A2955 RMK AO2 P0000 FZRANO =
2017-11-19 07:01 METAR KJHW 191201Z AUTO 30016G20KT 1 3/4SM -SN BR SCT010 OVC016 01/M01 A2955 RMK
                 AO2 P0000 FZRANO =
2017-11-19 06:56 METAR KJHW 191156Z AUTO 30014G20KT 4SM -SN BR BKN016 OVC021 01/M01 A2955 RMK AO2
                 PK WND 31026/1107 UPE1057B17E22RAB1057E17SNB22 PRESRR SLP020 P0000 60019 70105
                 T00061006 10072 20000 51057 FZRANO =
2017-11-19 05:56 METAR KJHW 191056Z AUTO 31016G25KT 10SM UP FEW010 BKN018 OVC024 01/M01 A2950 RMK
                 AO2 PK WND 31031/1040 RAB47E51UPB51SNE47 PRESRR SLP002 P0000 T00061006 FZRANO =
2017-11-19 05:45 METAR KJHW 191045Z AUTO 32018G31KT 9SM -SN SCT008 OVC023 01/M01 A2948 RMK AO2 PK
                 WND 31031/1040 PRESRR P0000 FZRANO =
2017-11-19 05:06 METAR KJHW 191006Z AUTO 30019G27KT 3SM -SN BR OVC006 01/00 A2944 RMK AO2 PK WND
                 31027/1006 P0000 FZRANO =
2017-11-19 04:56 METAR KJHW 190956Z AUTO 30019G23KT 2 1/2SM -SN BR OVC006 01/00 A2943 RMK AO2 PK
                 WND 31028/0941 SLP981 P0003 T00060000 FZRANO =
2017-11-19 04:42 METAR KJHW 190942Z AUTO 30021G28KT 2SM -SN BR OVC006 01/00 A2941 RMK AO2 PK WND
                 31028/0941 P0002 FZRANO =
2017-11-19 04:16 METAR KJHW 190916Z AUTO 30017G21KT 1 1/2SM -SN BR OVC006 01/00 A2939 RMK AO2 CIG
                 004V008 P0001 FZRANO =
2017-11-19 03:56 METAR KJHW 190856Z AUTO 30016KT 2 1/2SM -SN BR OVC006 01/00 A2937 RMK AO2 CIG
                 004V008 SLP961 P0004 60016 T00060000 51083 FZRANO =
2017-11-19 03:38 METAR KJHW 190838Z AUTO 30016G25KT 3SM -SN BR OVC006 01/00 A2936 RMK AO2 P0002
                 FZRANO =
2017-11-19 03:16 METAR KJHW 190816Z AUTO 29016G22KT 2 1/2SM -SN BR OVC006 01/00 A2933 RMK AO2 VIS
                 2V3 PRESRR P0001 FZRANO =
2017-11-19 02:56 METAR KJHW 190756Z AUTO 31018G24KT 7SM -SN OVC008 01/01 A2931 RMK AO2 PK WND
                 30028/0736 RAE49SNB49 CIG 006V010 PRESRR SLP939 P0004 T00110006 FZRANO =
2017-11-19 01:56 METAR KJHW 190656Z AUTO 32019G30KT 6SM -RA BR OVC008 04/03 A2921 RMK AO2 PK WND
                 33030/0655 CIG 005V011 PRESRR SLP904 P0008 T00390028 =
2017-11-19 00:56 METAR KJHW 190556Z AUTO 31019G30KT 9SM -RA OVC006 07/06 A2912 RMK AO2 PK WND
                 29033/0540 WSHFT 0522 CIG 005V011 PRESRR SLP869 P0015 60028 T00720061 10111
                 20072 53006 =
2017-11-19 00:52 METAR KJHW 190552Z AUTO 31022G30KT 9SM -RA OVC006 07/06 A2911 RMK AO2 PK WND
                 29033/0540 WSHFT 0522 CIG 003V011 P0014 =
2017-11-19 00:42 METAR KJHW 190542Z AUTO 29023G33KT 4SM -RA BR OVC004 09/08 A2910 RMK AO2 PK WND
                 29033/0540 WSHFT 0522 CIG 003V009 P0014 =
2017-11-18 23:56 METAR KJHW 190456Z AUTO 18007KT 6SM -RA BR OVC004 11/10 A2907 RMK AO2 RAB09 CIG
                 003V007 SLP849 P0009 T01060100 401110000 =
2017-11-18 23:47 METAR KJHW 190447Z AUTO 20008KT 6SM -RA BR BKN004 OVC008 11/10 A2907 RMK AO2
                 RAB09 CIG 003V007 P0008 =
2017-11-18 23:28 METAR KJHW 190428Z AUTO 20009KT 7SM RA OVC008 11/10 A2908 RMK AO2 RAB09 P0003 =
2017-11-18 22:56 METAR KJHW 190356Z AUTO 19008KT 10SM OVC012 11/10 A2910 RMK AO2 SLP859 T01110100
                 =
2017-11-18 22:25 METAR KJHW 190325Z AUTO 19011KT 10SM SCT008 OVC014 11/09 A2912 RMK AO2 =
2017-11-18 21:56 METAR KJHW 190256Z AUTO 18007KT 10SM OVC008 11/09 A2912 RMK AO2 CIG 006V012
                 SLP870 60004 T01060094 58031 =
2017-11-18 20:56 METAR KJHW 190156Z AUTO 22009KT 10SM OVC006 11/09 A2917 RMK AO2 PK WND
                 17026/0126 RAE55 PRESRR SLP885 P0002 T01060094 =
2017-11-18 20:10 METAR KJHW 190110Z AUTO 20013KT 10SM -RA BKN008 OVC046 10/09 A2920 RMK AO2 CIG
                 007V012 P0001 =
2017-11-18 19:56 METAR KJHW 190056Z AUTO 20014G19KT 10SM -RA BKN010 BKN016 OVC046 10/09 A2920 RMK
                 AO2 CIG 007V014 SLP898 P0002 T01000089 =
2017-11-18 18:56 METAR KJHW 182356Z AUTO 18011G17KT 10SM -RA OVC007 09/08 A2922 RMK AO2 CIG
                 004V010 SLP905 P0010 60058 T00890083 10089 20061 55033 =
2017-11-18 18:36 METAR KJHW 182336Z AUTO 18015G22KT 10SM -RA OVC005 09/08 A2923 RMK AO2 P0009 =
2017-11-18 17:56 METAR KJHW 182256Z AUTO 18011KT 4SM -RA BR OVC003 08/08 A2925 RMK AO2 SLP916
                 P0020 T00780078 TSNO =
2017-11-18 17:54 METAR KJHW 182254Z AUTO 19008KT 2 1/2SM -RA BR OVC003 08/08 A2926 RMK AO2 P0020
                 TSNO =
2017-11-18 17:51 METAR KJHW 182251Z AUTO 20010KT 1SM -RA BR OVC003 08/07 A2926 RMK AO2 P0019
                 RVRNO =
2017-11-18 17:38 METAR KJHW 182238Z AUTO 17011G17KT 1/2SM -RA FG OVC003 07/07 A2926 RMK AO2 P0019
                 RVRNO =
2017-11-18 17:29 METAR KJHW 182229Z AUTO 17011KT 3/4SM -RA BR OVC003 07/07 A2926 RMK AO2 PRESFR
                 P0017 RVRNO =
2017-11-18 17:24 METAR KJHW 182224Z AUTO 17010KT 1 3/4SM RA BR OVC003 07/07 A2928 RMK AO2 PRESFR
                 P0016 =
2017-11-18 16:56 METAR KJHW 182156Z AUTO 19006KT 5SM RA BR OVC003 07/07 A2932 RMK AO2 SLP941
                 P0010 T00720067 =
2017-11-18 15:56 METAR KJHW 182056Z AUTO 18010KT 10SM -RA OVC003 07/06 A2933 RMK AO2 SLP944 P0011
                 60018 T00670061 56046 =
2017-11-18 14:56 METAR KJHW 181956Z AUTO 18011KT 5SM -RA BR OVC003 06/06 A2937 RMK AO2 RAB01
                 SLP960 P0007 T00610061 =
2017-11-18 14:19 METAR KJHW 181919Z AUTO 19011KT 10SM -RA OVC003 06/06 A2941 RMK AO2 RAB01 P0000
                 =
2017-11-18 13:56 METAR KJHW 181856Z AUTO 17009KT 10SM OVC005 06/06 A2941 RMK AO2 RAE36 SLP973
                 P0000 T00610056 =
2017-11-18 12:56 METAR KJHW 181756Z AUTO 19011KT 8SM -RA OVC005 06/06 A2947 RMK AO2 RAB25 SLP995
                 P0000 60000 T00610056 10061 20028 57034 TSNO =
2017-11-18 11:56 METAR KJHW 181656Z AUTO 20010KT 10SM OVC005 06/04 A2952 RMK AO2 SLP011 T00560044
                 =
2017-11-18 10:56 METAR KJHW 181556Z AUTO 19010G17KT 8SM OVC005 05/04 A2953 RMK AO2 SLP017
                 T00500044 =
2017-11-18 09:56 METAR KJHW 181456Z AUTO 20009G16KT 10SM OVC005 05/04 A2958 RMK AO2 SLP033 60000
                 T00500039 58018 =

Support USWX by starting your Amazon purchase here.